createdAt,value
2019-03-30T00:00:34.285Z,20.60
2019-03-30T00:03:06.778Z,19.27
2019-03-30T00:05:40.899Z,15.97
2019-03-30T00:08:11.380Z,14.50
2019-03-30T00:10:43.253Z,13.20
2019-03-30T00:13:14.615Z,12.67
2019-03-30T00:15:49.027Z,12.50
2019-03-30T00:18:20.286Z,12.77
2019-03-30T00:20:51.555Z,11.77
2019-03-30T00:23:24.530Z,10.67
2019-03-30T00:25:55.770Z,11.23
2019-03-30T00:28:28.681Z,11.73
2019-03-30T00:31:03.064Z,12.00
2019-03-30T00:33:35.720Z,11.50
2019-03-30T00:36:07.062Z,12.33
2019-03-30T00:38:38.541Z,12.47
2019-03-30T00:41:12.253Z,12.60
2019-03-30T00:43:43.589Z,12.73
2019-03-30T00:46:15.352Z,13.50
2019-03-30T00:48:47.686Z,12.80
2019-03-30T00:51:18.942Z,12.17
2019-03-30T00:53:50.297Z,13.27
2019-03-30T00:56:24.430Z,13.30
2019-03-30T00:58:56.726Z,11.73
2019-03-30T01:01:33.107Z,12.30
2019-03-30T01:04:05.988Z,11.77
2019-03-30T01:06:37.330Z,11.17
2019-03-30T01:09:10.046Z,10.43
2019-03-30T01:11:41.395Z,13.83
2019-03-30T01:14:15.676Z,14.83
2019-03-30T01:16:47.276Z,18.53
2019-03-30T01:19:19.021Z,21.43
2019-03-30T01:21:50.293Z,22.33
2019-03-30T01:24:21.546Z,21.07
2019-03-30T01:26:52.854Z,15.90
2019-03-30T01:29:24.110Z,15.60
2019-03-30T01:31:55.667Z,18.37
2019-03-30T01:34:27.867Z,15.77
2019-03-30T01:36:59.173Z,17.17
2019-03-30T01:39:32.016Z,17.60
2019-03-30T01:42:03.318Z,19.07
2019-03-30T01:44:35.064Z,18.83
2019-03-30T01:47:08.087Z,16.47
2019-03-30T01:49:40.981Z,15.67
2019-03-30T01:52:12.251Z,15.53
2019-03-30T01:54:43.553Z,15.50
2019-03-30T01:57:15.461Z,14.13
2019-03-30T01:59:46.712Z,13.90
2019-03-30T02:02:18.956Z,13.27
2019-03-30T02:04:50.323Z,14.07
2019-03-30T02:07:21.584Z,15.97
2019-03-30T02:09:52.848Z,14.80
2019-03-30T02:12:26.883Z,14.77
2019-03-30T02:14:58.240Z,15.53
2019-03-30T02:17:29.559Z,15.00
2019-03-30T02:20:00.798Z,15.93
2019-03-30T02:22:32.823Z,15.80
2019-03-30T02:25:04.370Z,15.40
2019-03-30T02:27:37.666Z,15.97
2019-03-30T02:30:09.288Z,15.53
2019-03-30T02:32:42.500Z,15.60
2019-03-30T02:35:14.016Z,15.53
2019-03-30T02:37:45.321Z,16.77
2019-03-30T02:40:23.321Z,16.30
2019-03-30T02:42:54.562Z,16.87
2019-03-30T02:45:25.814Z,18.27
2019-03-30T02:47:58.799Z,19.63
2019-03-30T02:50:48.234Z,17.37
2019-03-30T02:53:06.913Z,16.80
2019-03-30T02:55:38.192Z,16.73
2019-03-30T02:58:12.527Z,15.53
2019-03-30T03:00:43.912Z,16.33
2019-03-30T03:03:17.097Z,14.20
2019-03-30T03:05:48.551Z,14.47
2019-03-30T03:08:20.651Z,15.33
2019-03-30T03:10:52.055Z,15.53
2019-03-30T03:13:23.326Z,14.67
2019-03-30T03:15:56.270Z,15.73
2019-03-30T03:18:27.526Z,15.77
2019-03-30T03:21:07.736Z,14.27
2019-03-30T03:23:35.809Z,13.30
2019-03-30T03:26:07.062Z,14.83
2019-03-30T03:28:38.376Z,16.73
2019-03-30T03:31:09.658Z,18.40
2019-03-30T03:33:43.347Z,18.73
2019-03-30T03:36:14.700Z,18.80
2019-03-30T03:38:45.994Z,17.87
2019-03-30T03:41:18.492Z,18.13
2019-03-30T03:43:49.885Z,17.50
2019-03-30T03:46:21.164Z,16.40
2019-03-30T03:48:53.393Z,16.73
2019-03-30T03:51:26.805Z,16.77
2019-03-30T03:53:58.497Z,17.13
2019-03-30T03:56:34.528Z,16.57
2019-03-30T03:59:06.816Z,15.63
2019-03-30T04:01:40.348Z,14.90
2019-03-30T04:04:13.519Z,14.30
2019-03-30T04:06:50.626Z,14.40
2019-03-30T04:09:26.267Z,14.33
2019-03-30T04:12:00.385Z,14.00
2019-03-30T04:14:35.307Z,15.53
2019-03-30T04:17:08.167Z,15.40
2019-03-30T04:19:39.406Z,15.80
2019-03-30T04:22:11.092Z,13.13
2019-03-30T04:24:43.855Z,14.37
2019-03-30T04:27:15.135Z,14.00
2019-03-30T04:29:46.378Z,13.43
2019-03-30T04:32:17.659Z,14.87
2019-03-30T04:34:48.923Z,14.03
2019-03-30T04:37:22.984Z,13.97
2019-03-30T04:39:54.237Z,13.73
2019-03-30T04:42:25.581Z,14.87
2019-03-30T04:44:58.674Z,14.43
2019-03-30T04:47:29.980Z,14.87
2019-03-30T04:50:02.254Z,14.77
2019-03-30T04:52:33.616Z,14.10
2019-03-30T04:55:07.522Z,14.73
2019-03-30T04:57:38.896Z,14.50
2019-03-30T05:00:10.853Z,15.13
2019-03-30T05:02:42.810Z,15.23
2019-03-30T05:05:15.242Z,14.73
2019-03-30T05:07:46.601Z,15.93
2019-03-30T05:10:19.033Z,14.70
2019-03-30T05:12:51.403Z,15.80
2019-03-30T05:15:22.711Z,15.87
2019-03-30T05:17:59.357Z,17.40
2019-03-30T05:20:30.614Z,16.67
2019-03-30T05:23:01.901Z,16.97
2019-03-30T05:25:34.187Z,18.33
2019-03-30T05:28:05.603Z,17.50
2019-03-30T05:30:38.191Z,16.23
2019-03-30T05:33:09.450Z,16.23
2019-03-30T05:35:40.708Z,14.70
2019-03-30T05:38:12.514Z,14.57
2019-03-30T05:40:43.931Z,15.93
2019-03-30T05:43:20.153Z,14.50
2019-03-30T05:45:51.482Z,15.07
2019-03-30T05:48:23.722Z,16.67
2019-03-30T05:50:56.287Z,15.90
2019-03-30T05:53:27.508Z,15.17
2019-03-30T05:55:58.760Z,15.43
2019-03-30T05:58:30.031Z,15.50
2019-03-30T06:01:01.972Z,15.33
2019-03-30T06:03:33.303Z,15.17
2019-03-30T06:06:08.313Z,14.50
2019-03-30T06:08:39.636Z,15.50
2019-03-30T06:11:10.883Z,18.17
2019-03-30T06:13:44.078Z,18.10
2019-03-30T06:16:18.760Z,18.37
2019-03-30T06:18:50.073Z,19.07
2019-03-30T06:21:21.527Z,17.80
2019-03-30T06:23:52.814Z,19.00
2019-03-30T06:26:24.147Z,19.17
2019-03-30T06:28:55.452Z,19.17
2019-03-30T06:31:28.991Z,18.43
2019-03-30T06:34:03.654Z,18.30
2019-03-30T06:36:34.918Z,18.43
2019-03-30T06:39:07.981Z,19.77
2019-03-30T06:41:39.273Z,18.33
2019-03-30T06:44:11.785Z,19.40
2019-03-30T06:46:44.496Z,19.03
2019-03-30T06:49:16.029Z,21.10
2019-03-30T06:51:47.496Z,21.60
2019-03-30T06:54:18.765Z,21.50
2019-03-30T06:56:52.275Z,21.13
2019-03-30T06:59:23.555Z,21.83
2019-03-30T07:01:56.759Z,21.37
2019-03-30T07:04:28.121Z,21.47
2019-03-30T07:07:02.444Z,20.30
2019-03-30T07:09:36.058Z,19.90
2019-03-30T07:12:08.072Z,20.57
2019-03-30T07:14:45.067Z,20.50
2019-03-30T07:17:16.958Z,20.57
2019-03-30T07:19:55.068Z,20.83
2019-03-30T07:22:26.856Z,21.50
2019-03-30T07:24:58.204Z,21.13
2019-03-30T07:27:30.876Z,20.23
2019-03-30T07:30:02.401Z,20.33
2019-03-30T07:32:34.129Z,20.23
2019-03-30T07:35:05.526Z,20.63
2019-03-30T07:37:37.057Z,19.43
2019-03-30T07:40:13.264Z,21.20
2019-03-30T07:42:44.539Z,21.80
2019-03-30T07:45:16.959Z,19.43
2019-03-30T07:47:50.012Z,19.00
2019-03-30T07:50:23.648Z,19.80
2019-03-30T07:52:54.896Z,20.37
2019-03-30T07:55:26.187Z,18.07
2019-03-30T07:57:59.921Z,17.63
2019-03-30T08:00:32.120Z,20.43
2019-03-30T08:03:08.356Z,19.13
2019-03-30T08:05:44.652Z,16.87
2019-03-30T08:08:17.269Z,18.87
2019-03-30T08:10:50.050Z,18.73
2019-03-30T08:13:22.124Z,18.03
2019-03-30T08:15:53.397Z,17.60
2019-03-30T08:18:26.471Z,17.83
2019-03-30T08:21:01.800Z,18.37
2019-03-30T08:23:40.556Z,17.77
2019-03-30T08:26:07.923Z,17.73
2019-03-30T08:28:41.586Z,17.30
2019-03-30T08:31:12.899Z,19.17
2019-03-30T08:33:44.724Z,17.00
2019-03-30T08:36:17.328Z,16.10
2019-03-30T08:38:48.587Z,15.23
2019-03-30T08:41:22.645Z,15.60
2019-03-30T08:43:56.660Z,15.30
2019-03-30T08:46:28.475Z,15.40
2019-03-30T08:48:59.735Z,14.23
2019-03-30T08:51:30.994Z,15.63
2019-03-30T08:54:03.566Z,15.53
2019-03-30T08:56:39.242Z,14.63
2019-03-30T08:59:10.511Z,15.70
2019-03-30T09:01:44.041Z,16.07
2019-03-30T09:04:15.439Z,15.10
2019-03-30T09:06:53.679Z,14.10
2019-03-30T09:09:25.141Z,15.27
2019-03-30T09:11:56.494Z,15.10
2019-03-30T09:14:35.329Z,12.87
2019-03-30T09:17:06.618Z,13.33
2019-03-30T09:19:40.258Z,13.63
2019-03-30T09:22:11.516Z,14.10
2019-03-30T09:24:42.829Z,14.00
2019-03-30T09:27:14.085Z,14.40
2019-03-30T09:29:45.468Z,13.37
2019-03-30T09:32:18.861Z,13.73
2019-03-30T09:34:50.681Z,13.80
2019-03-30T09:37:21.954Z,13.93
2019-03-30T09:39:53.232Z,13.10
2019-03-30T09:42:24.488Z,13.93
2019-03-30T09:44:55.766Z,13.33
2019-03-30T09:47:27.125Z,13.23
2019-03-30T09:50:02.070Z,13.00
2019-03-30T09:52:31.456Z,13.23
2019-03-30T09:55:03.662Z,13.60
2019-03-30T09:57:36.496Z,13.30
2019-03-30T10:00:10.491Z,13.07
2019-03-30T10:02:41.753Z,13.87
2019-03-30T10:05:14.361Z,12.97
2019-03-30T10:07:46.067Z,12.33
2019-03-30T10:10:17.602Z,14.50
2019-03-30T10:12:48.867Z,14.20
2019-03-30T10:15:20.166Z,12.90
2019-03-30T10:17:53.815Z,12.60
2019-03-30T10:20:27.094Z,11.90
2019-03-30T10:22:59.046Z,12.10
2019-03-30T10:25:34.109Z,12.50
2019-03-30T10:28:06.805Z,12.33
2019-03-30T10:30:38.475Z,11.90
2019-03-30T10:33:09.837Z,11.33
2019-03-30T10:35:48.222Z,12.03
2019-03-30T10:38:19.780Z,9.93
2019-03-30T10:40:51.071Z,11.13
2019-03-30T10:43:26.529Z,10.27
2019-03-30T10:45:59.897Z,8.63
2019-03-30T10:48:31.213Z,9.30
2019-03-30T10:51:04.310Z,9.23
2019-03-30T10:53:35.565Z,9.37
2019-03-30T10:56:09.442Z,9.00
2019-03-30T10:58:40.682Z,7.97
2019-03-30T11:01:12.262Z,8.27
2019-03-30T11:03:44.926Z,8.50
2019-03-30T11:06:16.225Z,9.37
2019-03-30T11:08:47.527Z,9.77
2019-03-30T11:11:18.798Z,10.10
2019-03-30T11:13:50.103Z,9.90
2019-03-30T11:16:21.362Z,9.60
2019-03-30T11:18:52.617Z,9.33
2019-03-30T11:21:23.932Z,9.37
2019-03-30T11:23:55.189Z,8.43
2019-03-30T11:26:26.463Z,8.90
2019-03-30T11:28:57.714Z,8.20
2019-03-30T11:31:28.992Z,8.60
2019-03-30T11:34:01.075Z,7.57
2019-03-30T11:36:32.365Z,7.77
2019-03-30T11:39:06.317Z,8.07
2019-03-30T11:41:37.614Z,7.63
2019-03-30T11:44:10.208Z,8.37
2019-03-30T11:46:42.491Z,9.53
2019-03-30T11:49:13.753Z,8.90
2019-03-30T11:51:46.768Z,9.30
2019-03-30T11:54:18.034Z,9.43
2019-03-30T11:56:50.755Z,9.57
2019-03-30T11:59:22.006Z,8.43
2019-03-30T12:01:53.311Z,7.93
2019-03-30T12:04:24.571Z,8.43
2019-03-30T12:06:56.363Z,7.23
2019-03-30T12:09:30.597Z,6.63
2019-03-30T12:12:04.694Z,6.53
2019-03-30T12:14:36.521Z,8.33
2019-03-30T12:17:07.813Z,7.40
2019-03-30T12:19:40.265Z,7.47
2019-03-30T12:22:12.405Z,7.30
2019-03-30T12:24:45.249Z,7.07
2019-03-30T12:27:18.723Z,7.57
2019-03-30T12:29:53.366Z,6.83
2019-03-30T12:32:26.847Z,7.53
2019-03-30T12:34:58.124Z,7.43
2019-03-30T12:37:30.911Z,7.60
2019-03-30T12:40:02.200Z,7.63
2019-03-30T12:42:35.997Z,7.97
2019-03-30T12:45:50.950Z,7.60
2019-03-30T12:48:24.472Z,7.50
2019-03-30T12:50:55.723Z,7.93
2019-03-30T12:53:27.493Z,6.63
2019-03-30T12:55:58.748Z,6.60
2019-03-30T12:58:31.212Z,6.90
2019-03-30T13:01:02.536Z,6.80
2019-03-30T13:03:34.152Z,6.93
2019-03-30T13:06:05.520Z,6.57
2019-03-30T13:08:37.114Z,6.87
2019-03-30T13:11:09.951Z,6.47
2019-03-30T13:13:44.042Z,6.67
2019-03-30T13:16:15.310Z,6.50
2019-03-30T13:18:47.174Z,6.50
2019-03-30T13:21:20.355Z,6.30
2019-03-30T13:23:53.931Z,6.43
2019-03-30T13:26:26.665Z,6.73
2019-03-30T13:28:59.881Z,6.93
2019-03-30T13:31:31.178Z,6.57
2019-03-30T13:34:10.733Z,7.53
2019-03-30T13:36:45.682Z,6.83
2019-03-30T13:39:16.964Z,6.17
2019-03-30T13:41:51.015Z,5.97
2019-03-30T13:44:22.278Z,6.57
2019-03-30T13:46:53.634Z,6.80
2019-03-30T13:49:29.680Z,5.73
2019-03-30T13:52:00.546Z,5.60
2019-03-30T13:54:32.696Z,5.50
2019-03-30T13:57:05.554Z,5.37
2019-03-30T13:59:38.879Z,5.90
2019-03-30T14:02:10.586Z,5.10
2019-03-30T14:04:41.940Z,5.37
2019-03-30T14:07:13.400Z,5.60
2019-03-30T14:09:45.351Z,6.00
2019-03-30T14:12:16.898Z,5.23
2019-03-30T14:14:48.148Z,6.03
2019-03-30T14:17:20.267Z,5.50
2019-03-30T14:19:52.100Z,5.97
2019-03-30T14:22:23.714Z,6.53
2019-03-30T14:24:55.501Z,6.77
2019-03-30T14:27:28.002Z,6.53
2019-03-30T14:30:00.437Z,6.70
2019-03-30T14:32:32.529Z,7.77
2019-03-30T14:35:03.849Z,8.00
2019-03-30T14:37:35.118Z,8.00
2019-03-30T14:40:08.047Z,7.00
2019-03-30T14:42:39.757Z,7.70
2019-03-30T14:45:11.353Z,7.20
2019-03-30T14:47:42.618Z,7.10
2019-03-30T14:50:15.324Z,6.70
2019-03-30T14:52:47.351Z,6.80
2019-03-30T14:55:19.020Z,6.83
2019-03-30T14:57:50.273Z,7.43
2019-03-30T15:00:22.894Z,7.90
2019-03-30T15:02:54.777Z,7.20
2019-03-30T15:05:26.243Z,8.03
2019-03-30T15:07:57.558Z,7.37
2019-03-30T15:10:30.042Z,8.03
2019-03-30T15:13:01.302Z,8.23
2019-03-30T15:15:34.078Z,7.97
2019-03-30T15:18:06.319Z,7.80
2019-03-30T15:20:41.822Z,7.30
2019-03-30T15:23:13.575Z,8.00
2019-03-30T15:25:44.871Z,7.83
2019-03-30T15:28:16.329Z,8.53
2019-03-30T15:30:47.590Z,9.50
2019-03-30T15:33:20.174Z,9.37
2019-03-30T15:35:53.865Z,9.17
2019-03-30T15:38:25.134Z,9.87
2019-03-30T15:40:58.121Z,8.93
2019-03-30T15:43:38.269Z,9.00
2019-03-30T15:46:07.637Z,9.00
2019-03-30T15:48:38.934Z,8.73
2019-03-30T15:51:10.178Z,9.03
2019-03-30T15:53:41.463Z,9.10
2019-03-30T15:56:18.520Z,9.50
2019-03-30T15:58:51.948Z,10.10
2019-03-30T16:01:23.296Z,8.63
2019-03-30T16:03:58.178Z,10.00
2019-03-30T16:06:29.432Z,10.67
2019-03-30T16:09:02.175Z,9.93
2019-03-30T16:11:35.731Z,10.60
2019-03-30T16:14:07.039Z,10.67
2019-03-30T16:16:39.370Z,11.37
2019-03-30T16:19:10.605Z,10.90
2019-03-30T16:21:41.880Z,10.63
2019-03-30T16:24:14.260Z,11.20
2019-03-30T16:26:47.431Z,10.87
2019-03-30T16:29:21.805Z,12.10
2019-03-30T16:31:53.074Z,14.40
2019-03-30T16:34:26.696Z,18.77
2019-03-30T16:36:58.022Z,16.00
2019-03-30T16:39:29.281Z,10.67
2019-03-30T16:42:02.200Z,10.43
2019-03-30T16:44:35.641Z,10.43
2019-03-30T16:47:08.165Z,10.67
2019-03-30T16:49:40.526Z,10.50
2019-03-30T16:52:11.967Z,9.90
2019-03-30T16:54:43.851Z,10.40
2019-03-30T16:57:15.796Z,10.40
2019-03-30T16:59:47.109Z,10.23
2019-03-30T17:02:19.696Z,10.67
2019-03-30T17:04:51.092Z,10.40
2019-03-30T17:07:23.281Z,10.60
2019-03-30T17:09:54.577Z,10.97
2019-03-30T17:12:25.893Z,12.10
2019-03-30T17:14:57.875Z,12.00
2019-03-30T17:17:30.973Z,11.83
2019-03-30T17:20:02.391Z,11.70
2019-03-30T17:22:34.174Z,11.80
2019-03-30T17:25:08.433Z,10.43
2019-03-30T17:27:39.747Z,11.10
2019-03-30T17:30:12.100Z,11.67
2019-03-30T17:32:44.209Z,11.10
2019-03-30T17:35:16.087Z,11.37
2019-03-30T17:37:50.103Z,11.93
2019-03-30T17:40:22.246Z,12.40
2019-03-30T17:42:53.528Z,12.43
2019-03-30T17:45:24.788Z,12.47
2019-03-30T17:47:56.482Z,12.43
2019-03-30T17:50:28.670Z,12.17
2019-03-30T17:53:01.193Z,11.00
2019-03-30T17:55:34.104Z,12.07
2019-03-30T17:58:13.403Z,12.00
2019-03-30T18:00:40.091Z,41.90
2019-03-30T18:03:11.605Z,16.53
2019-03-30T18:05:42.872Z,13.87
2019-03-30T18:10:50.349Z,13.57
2019-03-30T18:13:21.616Z,12.80
2019-03-30T18:15:52.892Z,13.67
2019-03-30T18:18:24.189Z,17.27
2019-03-30T18:20:55.533Z,21.30
2019-03-30T18:23:26.835Z,24.97
2019-03-30T18:25:58.249Z,28.50
2019-03-30T18:28:29.556Z,26.97
2019-03-30T18:31:00.891Z,29.33
2019-03-30T18:33:32.420Z,29.40
2019-03-30T18:36:05.127Z,31.50
2019-03-30T18:38:39.339Z,31.83
2019-03-30T18:41:10.722Z,29.30
2019-03-30T18:43:42.196Z,31.17
2019-03-30T18:46:13.515Z,31.60
2019-03-30T18:48:44.810Z,35.07
2019-03-30T18:51:16.088Z,32.83
2019-03-30T18:53:48.051Z,33.27
2019-03-30T18:56:19.372Z,39.97
2019-03-30T18:58:50.646Z,35.63
2019-03-30T19:01:21.951Z,35.67
2019-03-30T19:03:53.226Z,35.33
2019-03-30T19:06:24.602Z,39.63
2019-03-30T19:08:55.870Z,37.60
2019-03-30T19:11:27.190Z,38.40
2019-03-30T19:13:58.516Z,39.47
2019-03-30T19:16:29.780Z,38.20
2019-03-30T19:19:01.140Z,36.27
2019-03-30T19:21:32.836Z,35.63
2019-03-30T19:24:04.131Z,34.23
2019-03-30T19:26:35.487Z,35.20
2019-03-30T19:29:06.936Z,33.60
2019-03-30T19:31:38.181Z,33.43
2019-03-30T19:34:10.251Z,33.87
2019-03-30T19:36:41.609Z,29.45
2019-03-30T19:39:13.242Z,39.33
2019-03-30T19:41:47.045Z,36.70
2019-03-30T19:44:18.320Z,37.27
2019-03-30T19:46:49.651Z,37.70
2019-03-30T19:49:21.158Z,38.90
2019-03-30T19:51:52.446Z,38.17
2019-03-30T19:54:23.884Z,40.83
2019-03-30T19:56:55.244Z,40.67
2019-03-30T19:59:26.642Z,40.67
2019-03-30T20:01:57.946Z,41.23
2019-03-30T20:04:29.235Z,41.37
2019-03-30T20:07:00.540Z,40.10
2019-03-30T20:09:31.823Z,41.90
2019-03-30T20:12:03.170Z,41.37
2019-03-30T20:14:34.512Z,41.83
2019-03-30T20:17:05.783Z,42.00
2019-03-30T20:19:37.106Z,44.00
2019-03-30T20:22:08.355Z,43.50
2019-03-30T20:24:40.104Z,43.93
2019-03-30T20:27:11.556Z,45.43
2019-03-30T20:29:43.024Z,43.70
2019-03-30T20:32:14.328Z,42.97
2019-03-30T20:34:45.952Z,44.53
2019-03-30T20:37:17.243Z,42.63
2019-03-30T20:39:49.236Z,44.17
2019-03-30T20:42:20.786Z,43.23
2019-03-30T20:44:52.281Z,45.17
2019-03-30T20:47:23.550Z,45.67
2019-03-30T20:49:54.992Z,44.03
2019-03-30T20:52:26.310Z,44.97
2019-03-30T20:54:57.695Z,43.67
2019-03-30T20:57:28.987Z,43.37
2019-03-30T21:00:00.393Z,41.63
2019-03-30T21:02:32.089Z,40.90
2019-03-30T21:05:03.559Z,40.50
2019-03-30T21:07:35.267Z,42.17
2019-03-30T21:10:07.757Z,39.77
2019-03-30T21:12:39.157Z,40.00
2019-03-30T21:15:11.688Z,40.03
2019-03-30T21:17:46.050Z,38.93
2019-03-30T21:20:19.639Z,36.80
2019-03-30T21:22:53.695Z,37.00
2019-03-30T21:25:26.105Z,37.87
2019-03-30T21:27:58.742Z,40.60
2019-03-30T21:30:30.853Z,41.10
2019-03-30T21:33:03.279Z,41.10
2019-03-30T21:35:37.651Z,42.03
2019-03-30T21:38:09.660Z,41.83
2019-03-30T21:40:41.859Z,41.63
2019-03-30T21:43:19.694Z,43.63
2019-03-30T21:45:48.612Z,43.60
2019-03-30T21:48:20.342Z,42.20
2019-03-30T21:50:52.653Z,43.73
2019-03-30T21:53:24.024Z,43.93
2019-03-30T21:55:58.648Z,44.10
2019-03-30T21:58:30.510Z,45.23
2019-03-30T22:01:01.833Z,45.03
2019-03-30T22:03:34.627Z,45.10
2019-03-30T22:06:06.146Z,46.67
2019-03-30T22:08:37.542Z,46.80
2019-03-30T22:11:08.928Z,48.63
2019-03-30T22:13:40.309Z,48.43
2019-03-30T22:16:11.687Z,48.93
2019-03-30T22:18:43.224Z,49.30
2019-03-30T22:21:14.591Z,48.43
2019-03-30T22:23:46.065Z,49.43
2019-03-30T22:26:17.759Z,49.10
2019-03-30T22:28:49.510Z,49.27
2019-03-30T22:31:20.962Z,50.40
2019-03-30T22:33:52.265Z,48.97
2019-03-30T22:36:23.520Z,50.03
2019-03-30T22:38:54.896Z,48.63
2019-03-30T22:41:26.199Z,49.80
2019-03-30T22:43:57.483Z,49.13
2019-03-30T22:46:28.857Z,50.57
2019-03-30T22:49:00.163Z,50.57
2019-03-30T22:51:32.043Z,49.93
2019-03-30T22:54:04.195Z,50.47
2019-03-30T22:56:35.576Z,52.13
2019-03-30T22:59:07.181Z,50.30
2019-03-30T23:01:38.649Z,50.23
2019-03-30T23:04:10.083Z,50.07
2019-03-30T23:06:41.372Z,51.17
2019-03-30T23:09:12.730Z,49.10
2019-03-30T23:11:44.096Z,50.67
2019-03-30T23:14:15.433Z,52.53
2019-03-30T23:16:46.903Z,50.53
2019-03-30T23:19:18.372Z,51.83
2019-03-30T23:21:49.915Z,52.90
2019-03-30T23:24:21.199Z,51.00
2019-03-30T23:26:52.478Z,50.80
2019-03-30T23:29:23.834Z,52.17
2019-03-30T23:31:55.110Z,51.13
2019-03-30T23:34:26.456Z,51.30
2019-03-30T23:36:57.768Z,50.97
2019-03-30T23:39:29.148Z,50.37
2019-03-30T23:42:00.701Z,52.00
2019-03-30T23:44:32.159Z,50.43
2019-03-30T23:47:03.489Z,51.07
2019-03-30T23:49:34.784Z,51.23
2019-03-30T23:52:06.191Z,50.80
2019-03-30T23:54:37.802Z,51.00
2019-03-30T23:57:09.124Z,53.03
2019-03-30T23:59:40.476Z,51.50
